Time;durP1;ratioP1;P1;durP2;ratioP2;P2;SDS_P1;SDS_P2;PMS_P1;PMS_P2;Temp;Humidity;BMP_temperature;BMP_pressure;BME280_temperature;BME280_humidity;BME280_pressure;Samples;Min_cycle;Max_cycle;Signal;HPM_P1;HPM_P2
2023/12/29 00:00:06;;;;;;;10.50;2.45;;;10.70;99.90;;;;;;5129415;27;20036;-77
2023/12/29 00:02:32;;;;;;;10.40;1.85;;;10.80;99.90;;;;;;5113038;28;20035;-78
2023/12/29 00:04:57;;;;;;;11.02;2.10;;;10.80;99.90;;;;;;5095748;27;20613;-78
2023/12/29 00:07:23;;;;;;;5.78;1.73;;;10.80;99.90;;;;;;5130542;27;20039;-78
2023/12/29 00:09:48;;;;;;;5.97;1.70;;;10.90;99.90;;;;;;5112677;27;20179;-77
2023/12/29 00:12:14;;;;;;;9.60;2.35;;;10.80;99.90;;;;;;5111268;27;20492;-78
2023/12/29 00:14:40;;;;;;;8.70;1.95;;;10.80;99.90;;;;;;5112072;27;20058;-77
2023/12/29 00:17:06;;;;;;;7.80;1.80;;;10.90;99.90;;;;;;5147542;27;20041;-77
2023/12/29 00:19:31;;;;;;;5.95;1.38;;;10.90;99.90;;;;;;5094248;28;20069;-77
2023/12/29 00:21:59;;;;;;;7.07;1.58;;;10.90;99.90;;;;;;5090184;28;20043;-77
2023/12/29 00:24:25;;;;;;;4.85;1.20;;;10.80;99.90;;;;;;5146688;27;20047;-77
2023/12/29 00:26:51;;;;;;;4.32;1.33;;;10.70;99.90;;;;;;5110985;27;22043;-78
2023/12/29 00:29:17;;;;;;;8.90;1.98;;;10.70;99.90;;;;;;5129408;27;20039;-77
2023/12/29 00:31:43;;;;;;;7.93;1.30;;;10.80;99.90;;;;;;5093518;28;20040;-78
2023/12/29 00:34:09;;;;;;;6.93;1.60;;;10.80;99.90;;;;;;5129738;27;20039;-77
2023/12/29 00:36:35;;;;;;;6.78;1.90;;;10.80;99.90;;;;;;5112182;27;20447;-77
2023/12/29 00:39:00;;;;;;;9.73;2.47;;;10.80;99.90;;;;;;5112891;28;20099;-77
2023/12/29 00:41:26;;;;;;;5.97;1.30;;;10.80;99.90;;;;;;5127268;27;20047;-77
2023/12/29 00:43:51;;;;;;;8.90;1.88;;;10.80;99.90;;;;;;5095887;28;20044;-78
2023/12/29 00:46:17;;;;;;;9.50;1.80;;;10.80;99.90;;;;;;5129117;27;20079;-77
2023/12/29 00:48:43;;;;;;;6.07;1.92;;;10.90;99.90;;;;;;5129812;27;20036;-77
2023/12/29 00:51:08;;;;;;;7.00;1.50;;;10.80;99.90;;;;;;5128911;27;20031;-78
2023/12/29 00:53:37;;;;;;;6.63;1.40;;;10.70;99.90;;;;;;5146253;27;20039;-77
2023/12/29 00:56:09;;;;;;;3.90;1.13;;;10.80;99.90;;;;;;5129618;27;20119;-77
2023/12/29 00:58:34;;;;;;;5.20;1.17;;;10.80;99.90;;;;;;5112471;28;20048;-77
2023/12/29 01:01:00;;;;;;;7.10;1.55;;;10.80;99.90;;;;;;5110662;28;20156;-77
2023/12/29 01:03:26;;;;;;;6.00;1.25;;;10.70;99.90;;;;;;5111532;28;20043;-77
2023/12/29 01:05:51;;;;;;;8.38;1.95;;;10.80;99.90;;;;;;5129300;27;20468;-78
2023/12/29 01:08:17;;;;;;;8.55;1.95;;;10.80;99.90;;;;;;5094748;28;20036;-77
2023/12/29 01:10:42;;;;;;;13.55;1.90;;;10.70;99.90;;;;;;5095353;28;20047;-77
2023/12/29 01:13:08;;;;;;;9.77;2.08;;;10.60;99.90;;;;;;5126137;27;20032;-77
2023/12/29 01:15:34;;;;;;;12.70;2.88;;;10.60;99.90;;;;;;5111336;28;20031;-77
2023/12/29 01:18:00;;;;;;;9.57;1.92;;;10.40;99.90;;;;;;5145876;27;20149;-77
2023/12/29 01:20:25;;;;;;;14.43;2.72;;;10.30;99.90;;;;;;5146719;27;20466;-77
2023/12/29 01:22:51;;;;;;;14.05;2.97;;;10.20;99.90;;;;;;5145021;27;20482;-77
2023/12/29 01:25:16;;;;;;;7.55;1.95;;;10.30;99.90;;;;;;5127971;28;20059;-77
2023/12/29 01:27:42;;;;;;;5.13;1.52;;;10.40;99.90;;;;;;5094722;28;20040;-76
2023/12/29 01:30:08;;;;;;;8.88;2.20;;;10.50;99.90;;;;;;5094898;28;20040;-77
2023/12/29 01:32:34;;;;;;;7.05;1.55;;;10.60;99.90;;;;;;5114673;28;20035;-76
2023/12/29 01:34:59;;;;;;;7.90;1.65;;;10.60;99.90;;;;;;5081774;27;20032;-77
2023/12/29 01:37:25;;;;;;;9.57;1.98;;;10.50;99.90;;;;;;5150707;27;20040;-77
2023/12/29 01:39:51;;;;;;;10.63;2.30;;;10.40;99.90;;;;;;5133511;27;20469;-77
2023/12/29 01:42:16;;;;;;;13.45;2.83;;;10.30;99.90;;;;;;5148545;27;20039;-78
2023/12/29 01:44:43;;;;;;;7.95;1.80;;;10.10;99.90;;;;;;5099119;28;20468;-77
2023/12/29 01:47:15;;;;;;;12.18;2.88;;;9.90;99.90;;;;;;5131166;27;20031;-77
2023/12/29 01:49:43;;;;;;;11.00;2.55;;;10.10;99.90;;;;;;5133387;27;20040;-77
2023/12/29 01:52:09;;;;;;;10.52;2.15;;;10.20;99.90;;;;;;5132676;27;20483;-77
2023/12/29 01:54:38;;;;;;;13.68;2.45;;;10.10;99.90;;;;;;5138307;27;20122;-77
2023/12/29 01:57:04;;;;;;;6.50;1.85;;;10.30;99.90;;;;;;5126720;27;20032;-77
2023/12/29 01:59:31;;;;;;;10.48;1.90;;;10.30;99.90;;;;;;5150263;27;20052;-77
2023/12/29 02:01:57;;;;;;;10.23;2.47;;;10.40;99.90;;;;;;5115889;28;20036;-77
2023/12/29 02:04:27;;;;;;;9.02;1.73;;;10.40;99.90;;;;;;5131090;27;20510;-77
2023/12/29 02:06:53;;;;;;;10.48;2.25;;;10.40;99.90;;;;;;5151096;27;20046;-77
2023/12/29 02:09:19;;;;;;;9.60;1.90;;;10.40;99.90;;;;;;5133235;27;20517;-77
2023/12/29 02:11:46;;;;;;;7.53;1.58;;;10.40;99.90;;;;;;5132931;27;20127;-77
2023/12/29 02:14:12;;;;;;;5.72;1.80;;;10.40;99.90;;;;;;5113550;27;20423;-77
2023/12/29 02:16:40;;;;;;;13.82;2.63;;;10.40;99.90;;;;;;5107637;27;20047;-78
2023/12/29 02:19:36;;;;;;;7.57;1.73;;;10.10;99.90;;;;;;5118040;27;20057;-78
2023/12/29 02:22:01;;;;;;;8.45;1.60;;;9.70;99.90;;;;;;5132971;27;20031;-78
2023/12/29 02:24:27;;;;;;;9.30;1.25;;;9.20;99.90;;;;;;5096957;28;20547;-80
2023/12/29 02:27:02;;;;;;;8.32;1.80;;;8.60;99.90;;;;;;5113413;27;20389;-78
2023/12/29 02:29:30;;;;;;;6.95;2.10;;;8.40;99.90;;;;;;5131212;27;20028;-78
2023/12/29 02:31:59;;;;;;;8.18;1.38;;;8.50;99.90;;;;;;5132413;27;20058;-78
2023/12/29 02:34:25;;;;;;;8.57;1.38;;;8.10;99.90;;;;;;5147731;27;20055;-78
2023/12/29 02:36:52;;;;;;;13.05;1.73;;;7.90;99.90;;;;;;5113054;27;20040;-78
2023/12/29 02:39:18;;;;;;;9.13;1.75;;;7.80;99.90;;;;;;5131550;27;20098;-78
2023/12/29 02:41:43;;;;;;;10.80;1.92;;;7.80;99.90;;;;;;5131517;27;20141;-78
2023/12/29 02:44:09;;;;;;;7.45;1.20;;;7.90;99.90;;;;;;5149403;27;20372;-78
2023/12/29 02:46:35;;;;;;;10.25;1.50;;;7.90;99.90;;;;;;5118503;27;20040;-79
2023/12/29 02:49:01;;;;;;;15.55;2.22;;;7.90;99.90;;;;;;5128919;27;20044;-78
2023/12/29 02:51:26;;;;;;;8.70;1.30;;;7.90;99.90;;;;;;5128866;27;20082;-78
2023/12/29 02:53:52;;;;;;;9.40;2.15;;;8.10;99.90;;;;;;5111823;28;20127;-79
2023/12/29 02:56:18;;;;;;;11.38;2.60;;;8.20;99.90;;;;;;5132651;27;20032;-79
2023/12/29 02:58:45;;;;;;;11.52;2.30;;;8.40;99.90;;;;;;5127902;27;20056;-79
2023/12/29 03:01:11;;;;;;;6.22;1.88;;;8.80;99.90;;;;;;5094326;28;20492;-79
2023/12/29 03:03:39;;;;;;;13.65;3.00;;;9.10;99.90;;;;;;5111644;28;20047;-80
2023/12/29 03:06:05;;;;;;;11.75;2.40;;;9.30;99.90;;;;;;5134967;27;20510;-79
2023/12/29 03:08:32;;;;;;;13.38;2.28;;;9.40;99.90;;;;;;5128572;27;20047;-79
2023/12/29 03:10:58;;;;;;;14.90;2.42;;;9.60;99.90;;;;;;5128527;27;20385;-79
2023/12/29 03:13:23;;;;;;;11.55;2.53;;;9.70;99.90;;;;;;5148656;27;20043;-80
2023/12/29 03:15:49;;;;;;;12.95;2.08;;;9.70;99.90;;;;;;5112299;28;20486;-79
2023/12/29 03:18:14;;;;;;;10.82;2.08;;;9.70;99.90;;;;;;5091475;28;20032;-79
2023/12/29 03:20:40;;;;;;;10.38;2.20;;;9.80;99.90;;;;;;5112896;27;20036;-79
2023/12/29 03:23:06;;;;;;;10.25;1.92;;;9.80;99.90;;;;;;5114334;28;20126;-79
2023/12/29 03:25:31;;;;;;;15.48;2.35;;;9.80;99.90;;;;;;5130813;27;20050;-79
2023/12/29 03:27:58;;;;;;;14.95;3.08;;;9.80;99.90;;;;;;5129261;27;20031;-80
2023/12/29 03:30:24;;;;;;;13.93;2.42;;;9.90;99.90;;;;;;5148496;27;20495;-80
2023/12/29 03:32:50;;;;;;;10.70;2.28;;;9.90;99.90;;;;;;5114212;28;20101;-80
2023/12/29 03:35:16;;;;;;;11.35;2.75;;;10.00;99.90;;;;;;5147642;27;20028;-79
2023/12/29 03:37:42;;;;;;;11.68;1.85;;;9.90;99.90;;;;;;5129231;27;20042;-79
2023/12/29 03:40:08;;;;;;;16.58;2.88;;;10.00;99.90;;;;;;5113218;27;20032;-79
2023/12/29 03:42:34;;;;;;;9.95;2.42;;;9.90;99.90;;;;;;5108290;27;20059;-79
2023/12/29 03:44:59;;;;;;;17.27;2.72;;;9.90;99.90;;;;;;5112449;27;20039;-80
2023/12/29 03:47:25;;;;;;;13.10;3.03;;;10.10;99.90;;;;;;5106615;27;20047;-79
2023/12/29 03:49:50;;;;;;;19.90;3.47;;;10.00;99.90;;;;;;5135221;27;20031;-80
2023/12/29 03:52:16;;;;;;;11.00;2.50;;;10.00;99.90;;;;;;5102515;28;20063;-80
2023/12/29 03:54:42;;;;;;;14.38;2.60;;;10.10;99.90;;;;;;5088424;27;20042;-80
2023/12/29 03:57:07;;;;;;;13.38;2.60;;;10.00;99.90;;;;;;5080923;28;20027;-80
2023/12/29 03:59:37;;;;;;;12.13;2.25;;;10.10;99.90;;;;;;5075424;27;20056;-79
2023/12/29 04:02:03;;;;;;;16.88;3.30;;;10.00;99.90;;;;;;5104488;27;20067;-80
2023/12/29 04:04:28;;;;;;;15.73;3.10;;;10.00;99.90;;;;;;5093411;27;20472;-79
2023/12/29 04:06:54;;;;;;;11.73;2.67;;;9.90;99.90;;;;;;5105320;27;20487;-80
2023/12/29 04:09:21;;;;;;;13.40;2.65;;;10.00;99.90;;;;;;5122389;27;20043;-79
2023/12/29 04:11:46;;;;;;;17.48;3.22;;;9.90;99.90;;;;;;5118605;27;20051;-79
2023/12/29 04:14:12;;;;;;;20.60;3.28;;;10.00;99.90;;;;;;5074002;27;20067;-79
2023/12/29 04:16:39;;;;;;;14.38;2.95;;;10.00;99.90;;;;;;5078713;28;20085;-80
2023/12/29 04:19:04;;;;;;;13.77;3.33;;;10.00;99.90;;;;;;5118145;27;20105;-79
2023/12/29 04:21:30;;;;;;;11.95;2.05;;;10.10;99.90;;;;;;5078141;27;20162;-79
2023/12/29 04:23:56;;;;;;;21.98;3.42;;;10.00;99.90;;;;;;5106419;27;20691;-79
2023/12/29 04:26:21;;;;;;;13.95;2.78;;;9.90;99.90;;;;;;5089267;27;20036;-79
2023/12/29 04:28:47;;;;;;;6.97;2.20;;;10.00;99.90;;;;;;5084369;27;20096;-79
2023/12/29 04:31:12;;;;;;;13.25;2.90;;;10.00;99.90;;;;;;5071287;27;20040;-79
2023/12/29 04:33:38;;;;;;;12.13;3.08;;;9.90;99.90;;;;;;5125741;27;20035;-79
2023/12/29 04:36:04;;;;;;;18.35;3.15;;;10.10;99.90;;;;;;5090124;27;20236;-79
2023/12/29 04:38:30;;;;;;;14.40;3.50;;;9.90;99.90;;;;;;5120474;27;20036;-79
2023/12/29 04:40:55;;;;;;;17.75;3.13;;;10.00;99.90;;;;;;5077711;28;20665;-78
2023/12/29 04:43:21;;;;;;;12.50;2.50;;;10.00;99.90;;;;;;5126046;27;20036;-79
2023/12/29 04:45:47;;;;;;;14.40;2.58;;;9.90;99.90;;;;;;5113818;27;20118;-79
2023/12/29 04:48:12;;;;;;;10.73;2.33;;;10.10;99.90;;;;;;5094536;28;20572;-78
2023/12/29 04:50:38;;;;;;;13.68;2.55;;;9.90;99.90;;;;;;5090746;28;20515;-79
2023/12/29 04:53:03;;;;;;;14.68;2.85;;;9.90;99.90;;;;;;5079748;27;20185;-79
2023/12/29 04:55:29;;;;;;;18.10;3.22;;;10.00;99.90;;;;;;5091399;27;20036;-79
2023/12/29 04:57:55;;;;;;;13.68;2.17;;;9.90;99.90;;;;;;5084628;28;20047;-79
2023/12/29 05:00:20;;;;;;;14.68;3.38;;;9.90;99.90;;;;;;5118008;27;20051;-79
2023/12/29 05:02:46;;;;;;;16.50;3.05;;;9.80;99.90;;;;;;5101077;27;20082;-79
2023/12/29 05:05:11;;;;;;;19.60;3.80;;;9.90;99.90;;;;;;5107421;27;20476;-79
2023/12/29 05:07:37;;;;;;;21.23;3.72;;;9.80;99.90;;;;;;5100785;27;20395;-79
2023/12/29 05:10:03;;;;;;;14.20;2.83;;;10.00;99.90;;;;;;5067029;28;20128;-78
2023/12/29 05:12:29;;;;;;;20.90;3.05;;;9.90;99.90;;;;;;5075916;28;20040;-79
2023/12/29 05:14:55;;;;;;;10.63;1.67;;;9.90;99.90;;;;;;5120809;27;20044;-79
2023/12/29 05:17:21;;;;;;;19.83;3.72;;;10.00;99.90;;;;;;5079097;28;20087;-79
2023/12/29 05:19:47;;;;;;;13.90;2.85;;;10.00;99.90;;;;;;5111430;27;20035;-78
2023/12/29 05:22:15;;;;;;;18.42;3.33;;;10.00;99.90;;;;;;5080173;28;20043;-80
2023/12/29 05:24:42;;;;;;;17.75;3.50;;;10.00;99.90;;;;;;5088465;28;20522;-78
2023/12/29 05:27:08;;;;;;;15.30;2.35;;;9.90;99.90;;;;;;5094365;28;20591;-78
2023/12/29 05:29:33;;;;;;;19.52;2.80;;;9.90;99.90;;;;;;5111724;27;20048;-78
2023/12/29 05:31:59;;;;;;;17.83;2.85;;;9.90;99.90;;;;;;5083853;28;20162;-79
2023/12/29 05:34:25;;;;;;;20.88;3.00;;;9.90;99.90;;;;;;5100963;27;20032;-79
2023/12/29 05:36:50;;;;;;;13.48;2.65;;;9.90;99.90;;;;;;5103630;27;20034;-79
2023/12/29 05:39:16;;;;;;;17.00;3.38;;;9.90;99.90;;;;;;5104575;27;20047;-80
2023/12/29 05:41:41;;;;;;;20.15;3.53;;;9.80;99.90;;;;;;5120738;27;20042;-78
2023/12/29 05:44:07;;;;;;;18.25;3.13;;;9.80;99.90;;;;;;5110364;27;20136;-78
2023/12/29 05:46:33;;;;;;;15.77;3.28;;;9.90;99.90;;;;;;5107948;27;20404;-78
2023/12/29 05:48:58;;;;;;;10.85;1.98;;;9.80;99.90;;;;;;5139070;27;20044;-78
2023/12/29 05:51:24;;;;;;;15.40;2.55;;;9.90;99.90;;;;;;5082929;28;20044;-79
2023/12/29 05:53:50;;;;;;;8.82;2.28;;;9.90;99.90;;;;;;5107316;27;20435;-79
2023/12/29 05:56:15;;;;;;;11.85;1.88;;;9.90;99.90;;;;;;5105588;27;20067;-78
2023/12/29 05:58:42;;;;;;;17.63;2.45;;;9.90;99.90;;;;;;5103182;27;20572;-78
2023/12/29 06:01:08;;;;;;;19.48;3.65;;;10.00;99.90;;;;;;5100001;27;20043;-79
2023/12/29 06:03:33;;;;;;;11.07;1.98;;;10.00;99.90;;;;;;5109064;27;20412;-79
2023/12/29 06:05:59;;;;;;;16.42;3.00;;;10.00;99.90;;;;;;5112506;27;20142;-79
2023/12/29 06:08:25;;;;;;;18.60;2.63;;;10.00;99.90;;;;;;5100276;27;20044;-78
2023/12/29 06:10:51;;;;;;;15.27;2.38;;;9.90;99.90;;;;;;5068190;28;20117;-78
2023/12/29 06:13:16;;;;;;;10.15;2.65;;;9.90;99.90;;;;;;5120684;27;20046;-79
2023/12/29 06:15:42;;;;;;;13.23;1.95;;;10.10;99.90;;;;;;5103851;27;20031;-78
2023/12/29 06:18:08;;;;;;;15.32;2.95;;;10.00;99.90;;;;;;5104128;27;20132;-78
2023/12/29 06:20:33;;;;;;;8.70;1.65;;;10.10;99.90;;;;;;5126165;27;20040;-78
2023/12/29 06:22:59;;;;;;;13.43;1.92;;;10.10;99.90;;;;;;5083270;27;20145;-78
2023/12/29 06:25:25;;;;;;;9.85;1.67;;;10.00;99.90;;;;;;5129566;27;20043;-77
2023/12/29 06:27:51;;;;;;;15.38;2.58;;;10.10;99.90;;;;;;5104206;27;20549;-78
2023/12/29 06:30:16;;;;;;;11.38;2.25;;;10.10;99.90;;;;;;5121866;27;20040;-77
2023/12/29 06:32:42;;;;;;;15.48;2.78;;;10.20;99.90;;;;;;5101605;27;20067;-78
2023/12/29 06:35:11;;;;;;;15.95;3.22;;;10.10;99.90;;;;;;5105180;27;20684;-77
2023/12/29 06:37:41;;;;;;;12.07;2.40;;;10.10;99.90;;;;;;5119535;27;20036;-78
2023/12/29 06:40:07;;;;;;;8.15;2.42;;;10.20;99.90;;;;;;5076512;28;20483;-78
2023/12/29 06:42:32;;;;;;;12.90;2.20;;;10.10;99.90;;;;;;5104231;27;20052;-78
2023/12/29 06:44:58;;;;;;;11.25;1.85;;;10.00;99.90;;;;;;5121031;27;20032;-78
2023/12/29 06:47:24;;;;;;;11.40;2.15;;;10.00;99.90;;;;;;5100145;27;20152;-78
2023/12/29 06:49:50;;;;;;;13.43;2.20;;;9.90;99.90;;;;;;5125751;27;20035;-77
2023/12/29 06:52:16;;;;;;;14.82;2.55;;;10.00;99.90;;;;;;5110995;27;20040;-77
2023/12/29 06:54:42;;;;;;;12.07;2.17;;;9.90;99.90;;;;;;5088388;27;20494;-78
2023/12/29 06:57:08;;;;;;;14.93;2.20;;;10.10;99.90;;;;;;5122403;27;20063;-78
2023/12/29 06:59:33;;;;;;;11.95;2.45;;;10.00;99.90;;;;;;5115280;27;20452;-78
2023/12/29 07:01:59;;;;;;;22.60;3.38;;;9.90;99.90;;;;;;5128230;27;20070;-77
2023/12/29 07:04:25;;;;;;;12.93;2.28;;;9.90;99.90;;;;;;5122586;27;20765;-77
2023/12/29 07:06:50;;;;;;;11.95;2.08;;;9.90;99.90;;;;;;5099710;27;20096;-77
2023/12/29 07:09:16;;;;;;;11.27;1.90;;;9.90;99.90;;;;;;5083820;28;20119;-77
2023/12/29 07:11:46;;;;;;;12.93;2.45;;;9.90;99.90;;;;;;5119187;27;20050;-77
2023/12/29 07:14:12;;;;;;;18.42;3.25;;;10.00;99.90;;;;;;5120757;27;20063;-78
2023/12/29 07:16:37;;;;;;;12.27;2.50;;;9.80;99.90;;;;;;5116363;27;20154;-78
2023/12/29 07:19:03;;;;;;;12.43;3.83;;;9.80;99.90;;;;;;5088468;27;20069;-78
2023/12/29 07:21:29;;;;;;;15.95;2.78;;;9.90;99.90;;;;;;5115012;27;20066;-77
2023/12/29 07:23:54;;;;;;;13.85;2.67;;;9.90;99.90;;;;;;5092873;27;20068;-77
2023/12/29 07:26:20;;;;;;;8.45;1.88;;;9.90;99.90;;;;;;5100266;27;20039;-77
2023/12/29 07:28:46;;;;;;;14.05;2.35;;;9.90;99.90;;;;;;5067427;27;20071;-77
2023/12/29 07:31:12;;;;;;;15.00;2.65;;;9.90;99.90;;;;;;5085825;27;20500;-77
2023/12/29 07:33:37;;;;;;;22.17;3.38;;;9.90;99.90;;;;;;5123660;27;20046;-77
2023/12/29 07:36:03;;;;;;;15.68;2.45;;;9.80;99.90;;;;;;5088138;27;20044;-77
2023/12/29 07:38:29;;;;;;;12.27;2.30;;;9.90;99.90;;;;;;5084202;27;20036;-77
2023/12/29 07:40:55;;;;;;;14.60;4.00;;;9.80;99.90;;;;;;5101791;27;20544;-77
2023/12/29 07:43:20;;;;;;;27.70;3.15;;;9.90;99.90;;;;;;5119853;27;20043;-78
2023/12/29 07:45:46;;;;;;;16.77;2.67;;;9.90;99.90;;;;;;5105821;27;20093;-77
2023/12/29 07:48:11;;;;;;;17.27;3.40;;;9.80;99.90;;;;;;5090361;27;20044;-77
2023/12/29 07:50:37;;;;;;;17.10;2.67;;;9.90;99.90;;;;;;5090255;27;20361;-78
2023/12/29 07:53:03;;;;;;;23.27;4.40;;;9.90;99.90;;;;;;5109845;27;20535;-78
2023/12/29 07:55:31;;;;;;;18.45;3.85;;;10.00;99.90;;;;;;5109034;27;20072;-77
2023/12/29 07:57:56;;;;;;;26.15;4.43;;;9.90;99.90;;;;;;5126899;27;20130;-77
2023/12/29 08:00:23;;;;;;;17.60;3.38;;;9.80;99.90;;;;;;5101777;27;20480;-77
2023/12/29 08:02:49;;;;;;;16.30;3.22;;;9.90;99.90;;;;;;5115676;27;20044;-77
2023/12/29 08:05:15;;;;;;;17.75;3.40;;;9.90;99.90;;;;;;5077252;28;20040;-77
2023/12/29 08:07:41;;;;;;;11.10;1.75;;;9.90;99.90;;;;;;5080042;27;20089;-78
2023/12/29 08:10:07;;;;;;;17.38;2.63;;;9.90;99.90;;;;;;5123277;27;20480;-78
2023/12/29 08:12:33;;;;;;;13.13;2.28;;;9.90;99.90;;;;;;5107980;27;20251;-77
2023/12/29 08:15:02;;;;;;;9.48;2.20;;;9.90;99.90;;;;;;5114531;27;20170;-78
2023/12/29 08:17:29;;;;;;;19.75;3.92;;;9.90;99.90;;;;;;5096960;27;20480;-78
2023/12/29 08:19:55;;;;;;;16.80;3.03;;;9.90;99.90;;;;;;5108699;27;20075;-78
2023/12/29 08:22:21;;;;;;;24.90;3.88;;;9.90;99.90;;;;;;5066229;28;20124;-78
2023/12/29 08:24:47;;;;;;;17.77;3.65;;;9.80;99.90;;;;;;5081724;28;20031;-77
2023/12/29 08:27:13;;;;;;;19.65;2.75;;;9.70;99.90;;;;;;5080862;27;20515;-78
2023/12/29 08:29:39;;;;;;;17.00;2.72;;;9.60;99.90;;;;;;5121086;27;20047;-78
2023/12/29 08:32:05;;;;;;;21.55;3.80;;;9.70;99.90;;;;;;5084014;28;20036;-80
2023/12/29 08:34:31;;;;;;;11.60;2.35;;;9.70;99.90;;;;;;5089504;27;20062;-77
2023/12/29 08:36:57;;;;;;;22.15;3.35;;;9.80;99.90;;;;;;5103044;28;20090;-78
2023/12/29 08:39:23;;;;;;;14.93;2.63;;;9.80;99.90;;;;;;5101474;28;20047;-78
2023/12/29 08:41:51;;;;;;;20.65;3.97;;;9.70;99.90;;;;;;5123012;27;20085;-77
2023/12/29 08:44:17;;;;;;;15.38;2.88;;;9.80;99.90;;;;;;5093346;28;20051;-78
2023/12/29 08:46:42;;;;;;;27.45;3.88;;;9.80;99.90;;;;;;5143776;27;20047;-76
2023/12/29 08:49:08;;;;;;;24.38;3.65;;;9.80;99.90;;;;;;5092810;28;20027;-77
2023/12/29 08:51:34;;;;;;;18.35;3.38;;;9.60;99.90;;;;;;5106269;28;20043;-78
2023/12/29 08:54:00;;;;;;;21.95;3.50;;;9.50;99.90;;;;;;5106917;28;20456;-78
2023/12/29 08:56:25;;;;;;;21.83;3.75;;;9.30;99.90;;;;;;5101007;28;20041;-78
2023/12/29 08:58:52;;;;;;;28.75;3.08;;;9.20;99.90;;;;;;5092997;28;20451;-79
2023/12/29 09:01:18;;;;;;;23.13;4.00;;;9.10;99.90;;;;;;5126085;27;20491;-79
2023/12/29 09:03:44;;;;;;;19.42;3.70;;;9.20;99.90;;;;;;5107850;28;20046;-79
2023/12/29 09:06:09;;;;;;;19.13;3.40;;;9.20;99.90;;;;;;5111534;28;20122;-79
2023/12/29 09:08:35;;;;;;;25.45;3.95;;;9.10;99.90;;;;;;5092934;28;20078;-79
2023/12/29 09:11:01;;;;;;;16.10;3.10;;;9.20;99.90;;;;;;5107563;28;20043;-79
2023/12/29 09:13:27;;;;;;;23.38;3.60;;;9.30;99.90;;;;;;5130233;27;20035;-78
2023/12/29 09:15:56;;;;;;;14.07;3.38;;;9.30;99.90;;;;;;5093339;28;20027;-77
2023/12/29 09:18:21;;;;;;;22.75;3.03;;;9.20;99.90;;;;;;5093606;28;20043;-78
2023/12/29 09:20:47;;;;;;;21.92;3.65;;;9.30;99.90;;;;;;5090067;28;20409;-78
2023/12/29 09:23:13;;;;;;;11.45;2.50;;;9.30;99.90;;;;;;5094093;28;20498;-78
2023/12/29 09:25:39;;;;;;;19.58;3.20;;;9.60;99.90;;;;;;5142718;27;20070;-78
2023/12/29 09:28:05;;;;;;;21.67;3.25;;;9.60;99.90;;;;;;5125041;28;20177;-80
2023/12/29 09:30:31;;;;;;;24.80;3.92;;;9.50;99.90;;;;;;5109172;28;22013;-79
2023/12/29 09:32:56;;;;;;;16.30;2.67;;;9.40;99.90;;;;;;5109768;28;20361;-78
2023/12/29 09:35:22;;;;;;;15.05;2.75;;;9.40;99.90;;;;;;5092640;28;20036;-78
2023/12/29 09:37:48;;;;;;;16.92;2.70;;;9.40;99.90;;;;;;5092689;28;20059;-78
2023/12/29 09:40:14;;;;;;;19.23;3.08;;;9.50;99.90;;;;;;5110039;28;20391;-78
2023/12/29 09:42:42;;;;;;;16.42;3.13;;;9.50;99.90;;;;;;5124017;27;20035;-79
2023/12/29 09:45:11;;;;;;;13.73;2.22;;;9.50;99.90;;;;;;5104129;28;20032;-78
2023/12/29 09:47:40;;;;;;;19.65;3.72;;;9.70;99.90;;;;;;5101608;28;20065;-75
2023/12/29 09:50:09;;;;;;;16.30;2.95;;;9.70;99.90;;;;;;5109680;28;20042;-78
2023/12/29 09:52:37;;;;;;;20.83;3.53;;;9.70;99.90;;;;;;5111739;28;20046;-75
2023/12/29 09:55:04;;;;;;;18.30;3.75;;;9.70;99.90;;;;;;5129210;27;20475;-77
2023/12/29 09:57:30;;;;;;;18.77;3.03;;;9.70;99.90;;;;;;5096133;28;20069;-78
2023/12/29 09:59:57;;;;;;;13.23;2.08;;;9.70;99.90;;;;;;5130255;27;20048;-77
2023/12/29 10:02:23;;;;;;;18.27;3.00;;;9.80;99.90;;;;;;5096470;28;20044;-78
2023/12/29 10:04:49;;;;;;;14.40;2.22;;;9.80;99.90;;;;;;5096482;28;20035;-78
2023/12/29 10:07:25;;;;;;;17.20;2.55;;;9.80;99.90;;;;;;5127028;27;20123;-78
2023/12/29 10:09:55;;;;;;;19.42;3.88;;;9.90;99.90;;;;;;5094971;28;20032;-78
2023/12/29 10:12:21;;;;;;;11.32;2.65;;;10.00;99.90;;;;;;5114150;28;20548;-78
2023/12/29 10:15:07;;;;;;;24.63;2.85;;;9.90;99.90;;;;;;5093994;28;20072;-78
2023/12/29 10:17:50;;;;;;;23.00;3.08;;;10.00;99.90;;;;;;5103397;27;20365;-78
2023/12/29 10:20:22;;;;;;;15.18;2.78;;;10.00;99.90;;;;;;5106141;28;20057;-78
2023/12/29 10:23:05;;;;;;;13.00;2.83;;;10.00;99.90;;;;;;5095199;27;20066;-78
2023/12/29 10:25:31;;;;;;;13.68;2.97;;;10.20;99.90;;;;;;5084039;28;20042;-77
2023/12/29 10:27:58;;;;;;;8.90;2.13;;;10.20;99.90;;;;;;5094283;28;20032;-78
2023/12/29 10:30:23;;;;;;;16.15;2.42;;;10.20;99.90;;;;;;5128406;27;20072;-77
2023/12/29 10:32:53;;;;;;;17.98;2.63;;;10.30;99.90;;;;;;5106816;28;20073;-78
2023/12/29 10:35:19;;;;;;;14.07;3.00;;;10.20;99.90;;;;;;5142387;27;20131;-77
2023/12/29 10:37:44;;;;;;;18.50;2.88;;;10.20;99.90;;;;;;5093858;28;20027;-78
2023/12/29 10:40:17;;;;;;;18.30;2.67;;;10.10;99.90;;;;;;5124257;27;20047;-78
2023/12/29 10:43:06;;;;;;;13.75;2.97;;;10.20;99.90;;;;;;5103769;28;20093;-78
2023/12/29 10:45:32;;;;;;;17.23;2.78;;;10.20;99.90;;;;;;5096024;28;20043;-78
2023/12/29 10:48:00;;;;;;;15.07;2.75;;;10.20;99.90;;;;;;5113328;28;20035;-78
2023/12/29 10:50:27;;;;;;;11.95;1.75;;;10.30;99.90;;;;;;5094605;28;20066;-78
2023/12/29 10:53:14;;;;;;;17.50;2.38;;;10.30;99.90;;;;;;5126837;27;20032;-78
2023/12/29 10:55:39;;;;;;;14.93;2.53;;;10.10;99.90;;;;;;5101649;27;20043;-78
2023/12/29 10:58:06;;;;;;;9.73;2.00;;;10.20;99.90;;;;;;5112839;28;20052;-78
2023/12/29 11:00:35;;;;;;;11.95;2.25;;;10.30;99.90;;;;;;5145972;27;20039;-78
2023/12/29 11:03:01;;;;;;;16.58;2.35;;;10.30;99.90;;;;;;5094646;28;20043;-78
2023/12/29 11:05:27;;;;;;;15.30;2.28;;;10.20;99.90;;;;;;5142205;27;20101;-77
2023/12/29 11:07:54;;;;;;;16.77;3.20;;;10.40;99.90;;;;;;5112309;28;20024;-78
2023/12/29 11:10:23;;;;;;;14.52;3.70;;;10.30;99.90;;;;;;5145331;27;20092;-77
2023/12/29 11:12:49;;;;;;;14.25;2.47;;;10.40;99.90;;;;;;5092656;28;20046;-78
2023/12/29 11:15:16;;;;;;;15.35;2.70;;;10.30;99.90;;;;;;5111160;28;20476;-79
2023/12/29 11:17:49;;;;;;;9.77;2.13;;;10.20;99.90;;;;;;5090927;28;20381;-78
2023/12/29 11:20:16;;;;;;;13.75;2.85;;;10.20;99.90;;;;;;5093646;28;20115;-79
2023/12/29 11:22:43;;;;;;;13.55;2.80;;;10.10;99.90;;;;;;5130737;27;20039;-79
2023/12/29 11:25:09;;;;;;;12.27;2.55;;;10.40;99.90;;;;;;5096119;28;20031;-78
2023/12/29 11:27:35;;;;;;;16.13;3.22;;;10.40;99.90;;;;;;5107795;28;20775;-79
2023/12/29 11:30:04;;;;;;;9.75;1.67;;;10.40;99.90;;;;;;5127414;27;20403;-79
2023/12/29 11:32:51;;;;;;;14.77;2.17;;;10.40;99.90;;;;;;5095982;28;20044;-80
2023/12/29 11:35:18;;;;;;;16.15;2.22;;;10.20;99.90;;;;;;5104986;28;20027;-78
2023/12/29 11:38:23;;;;;;;14.18;2.13;;;10.10;99.90;;;;;;5094128;28;20088;-78
2023/12/29 11:41:10;;;;;;;10.60;2.05;;;10.00;99.90;;;;;;5093735;28;20078;-79
2023/12/29 11:43:37;;;;;;;9.75;1.55;;;10.00;99.90;;;;;;5111032;28;20041;-81
2023/12/29 11:46:02;;;;;;;12.25;1.98;;;10.00;99.90;;;;;;5124385;27;20040;-80
2023/12/29 11:48:56;;;;;;;9.50;1.90;;;9.90;99.90;;;;;;5094707;28;20039;-80
2023/12/29 11:51:46;;;;;;;9.75;2.55;;;9.90;99.90;;;;;;5110338;28;20059;-79
2023/12/29 11:54:22;;;;;;;11.07;1.88;;;9.90;99.90;;;;;;5107813;28;20127;-79
2023/12/29 11:56:48;;;;;;;14.77;2.38;;;9.80;99.90;;;;;;5111451;27;20035;-79
2023/12/29 11:59:19;;;;;;;10.55;2.08;;;9.80;99.90;;;;;;5096253;28;20067;-79
2023/12/29 12:01:53;;;;;;;13.98;2.42;;;9.70;99.90;;;;;;5091779;28;20507;-79
2023/12/29 12:04:39;;;;;;;12.38;2.15;;;9.70;99.90;;;;;;5093638;28;20560;-79
2023/12/29 12:07:07;;;;;;;14.95;2.10;;;9.70;99.90;;;;;;5094320;28;20392;-80
2023/12/29 12:09:34;;;;;;;16.50;2.33;;;9.70;99.90;;;;;;5111773;28;20043;-80
2023/12/29 12:12:02;;;;;;;11.85;2.25;;;9.60;99.90;;;;;;5108439;28;20047;-79
2023/12/29 12:14:47;;;;;;;12.50;2.15;;;9.60;99.90;;;;;;5109642;28;20522;-79
2023/12/29 12:17:27;;;;;;;11.02;2.13;;;9.70;99.90;;;;;;5103159;28;20143;-78
2023/12/29 12:19:57;;;;;;;13.63;2.22;;;9.70;99.90;;;;;;5078707;28;20103;-79
2023/12/29 12:22:24;;;;;;;10.75;1.95;;;9.60;99.90;;;;;;5108867;27;20398;-79
2023/12/29 12:24:56;;;;;;;16.60;2.95;;;9.60;99.90;;;;;;5092225;28;20057;-79
2023/12/29 12:27:25;;;;;;;14.02;2.55;;;9.50;99.90;;;;;;5093860;28;20381;-79
2023/12/29 12:29:55;;;;;;;8.65;1.88;;;9.50;99.90;;;;;;5095748;28;20040;-79
2023/12/29 12:32:22;;;;;;;14.80;2.35;;;9.60;99.90;;;;;;5092464;28;20040;-79
2023/12/29 12:34:47;;;;;;;16.17;2.83;;;9.60;99.90;;;;;;5093679;28;20040;-80
2023/12/29 12:37:22;;;;;;;12.23;2.03;;;9.50;99.90;;;;;;5098648;28;20032;-79
2023/12/29 12:39:48;;;;;;;15.18;2.58;;;9.60;99.90;;;;;;5092375;28;20502;-79
2023/12/29 12:42:16;;;;;;;12.07;2.30;;;9.80;99.90;;;;;;5144900;27;20031;-79
2023/12/29 12:44:56;;;;;;;13.80;1.92;;;9.70;99.90;;;;;;5086815;28;20031;-81